sensor_id;sensor_type;location;lat;lon;timestamp;P1;durP1;ratioP1;P2;durP2;ratioP2
75963;SDS011;65820;44.726;37.764;2023-01-04T00:00:24;9.63;;;4.95;;
75963;SDS011;65820;44.726;37.764;2023-01-04T00:01:31;8.70;;;5.43;;
75963;SDS011;65820;44.726;37.764;2023-01-04T00:02:37;7.65;;;4.85;;
75963;SDS011;65820;44.726;37.764;2023-01-04T00:03:44;7.28;;;4.50;;
75963;SDS011;65820;44.726;37.764;2023-01-04T00:04:51;8.10;;;4.90;;
75963;SDS011;65820;44.726;37.764;2023-01-04T00:05:58;8.25;;;5.00;;
75963;SDS011;65820;44.726;37.764;2023-01-04T00:07:07;9.35;;;5.10;;
75963;SDS011;65820;44.726;37.764;2023-01-04T00:08:14;8.32;;;4.82;;
75963;SDS011;65820;44.726;37.764;2023-01-04T00:09:20;7.40;;;4.47;;
75963;SDS011;65820;44.726;37.764;2023-01-04T00:10:27;7.70;;;4.82;;
75963;SDS011;65820;44.726;37.764;2023-01-04T00:11:33;8.02;;;4.97;;
75963;SDS011;65820;44.726;37.764;2023-01-04T00:12:40;7.93;;;4.63;;
75963;SDS011;65820;44.726;37.764;2023-01-04T00:13:48;9.32;;;5.20;;
75963;SDS011;65820;44.726;37.764;2023-01-04T00:14:56;7.53;;;4.68;;
75963;SDS011;65820;44.726;37.764;2023-01-04T00:16:03;7.75;;;4.97;;
75963;SDS011;65820;44.726;37.764;2023-01-04T00:17:14;8.70;;;4.80;;
75963;SDS011;65820;44.726;37.764;2023-01-04T00:18:20;8.07;;;4.82;;
75963;SDS011;65820;44.726;37.764;2023-01-04T00:19:27;9.00;;;5.07;;
75963;SDS011;65820;44.726;37.764;2023-01-04T00:20:34;7.82;;;5.03;;
75963;SDS011;65820;44.726;37.764;2023-01-04T00:21:41;7.43;;;4.55;;
75963;SDS011;65820;44.726;37.764;2023-01-04T00:22:47;8.05;;;5.22;;
75963;SDS011;65820;44.726;37.764;2023-01-04T00:23:55;7.15;;;4.53;;
75963;SDS011;65820;44.726;37.764;2023-01-04T00:25:03;8.30;;;4.65;;
75963;SDS011;65820;44.726;37.764;2023-01-04T00:26:21;9.50;;;5.22;;
75963;SDS011;65820;44.726;37.764;2023-01-04T00:27:29;8.43;;;5.22;;
75963;SDS011;65820;44.726;37.764;2023-01-04T00:28:36;8.55;;;4.80;;
75963;SDS011;65820;44.726;37.764;2023-01-04T00:29:43;8.43;;;4.97;;
75963;SDS011;65820;44.726;37.764;2023-01-04T00:30:49;7.60;;;4.72;;
75963;SDS011;65820;44.726;37.764;2023-01-04T00:31:56;7.55;;;4.72;;
75963;SDS011;65820;44.726;37.764;2023-01-04T00:33:03;8.57;;;5.35;;
75963;SDS011;65820;44.726;37.764;2023-01-04T00:34:10;7.72;;;5.05;;
75963;SDS011;65820;44.726;37.764;2023-01-04T00:35:19;6.90;;;4.53;;
75963;SDS011;65820;44.726;37.764;2023-01-04T00:36:26;8.05;;;4.95;;
75963;SDS011;65820;44.726;37.764;2023-01-04T00:37:33;8.50;;;5.50;;
75963;SDS011;65820;44.726;37.764;2023-01-04T00:38:42;8.38;;;4.82;;
75963;SDS011;65820;44.726;37.764;2023-01-04T00:39:48;8.23;;;4.72;;
75963;SDS011;65820;44.726;37.764;2023-01-04T00:40:55;7.35;;;4.30;;
75963;SDS011;65820;44.726;37.764;2023-01-04T00:42:01;9.38;;;5.43;;
75963;SDS011;65820;44.726;37.764;2023-01-04T00:43:12;7.97;;;5.00;;
75963;SDS011;65820;44.726;37.764;2023-01-04T00:44:18;7.28;;;4.72;;
75963;SDS011;65820;44.726;37.764;2023-01-04T00:46:34;8.43;;;4.90;;
75963;SDS011;65820;44.726;37.764;2023-01-04T00:47:42;8.27;;;4.97;;
75963;SDS011;65820;44.726;37.764;2023-01-04T00:48:49;7.40;;;4.75;;
75963;SDS011;65820;44.726;37.764;2023-01-04T00:49:56;8.25;;;4.97;;
75963;SDS011;65820;44.726;37.764;2023-01-04T00:51:02;7.95;;;4.80;;
75963;SDS011;65820;44.726;37.764;2023-01-04T00:52:09;8.18;;;4.82;;
75963;SDS011;65820;44.726;37.764;2023-01-04T00:53:16;8.30;;;4.68;;
75963;SDS011;65820;44.726;37.764;2023-01-04T00:54:23;8.25;;;5.13;;
75963;SDS011;65820;44.726;37.764;2023-01-04T00:55:30;7.88;;;4.97;;
75963;SDS011;65820;44.726;37.764;2023-01-04T00:56:37;8.18;;;5.35;;
75963;SDS011;65820;44.726;37.764;2023-01-04T00:57:43;9.15;;;5.00;;
75963;SDS011;65820;44.726;37.764;2023-01-04T00:58:53;9.20;;;5.15;;
75963;SDS011;65820;44.726;37.764;2023-01-04T01:00:04;8.48;;;5.05;;
75963;SDS011;65820;44.726;37.764;2023-01-04T01:01:11;8.15;;;5.05;;
75963;SDS011;65820;44.726;37.764;2023-01-04T01:02:18;7.78;;;5.32;;
75963;SDS011;65820;44.726;37.764;2023-01-04T01:03:24;7.68;;;4.53;;
75963;SDS011;65820;44.726;37.764;2023-01-04T01:04:31;6.93;;;4.35;;
75963;SDS011;65820;44.726;37.764;2023-01-04T01:05:37;7.35;;;4.78;;
75963;SDS011;65820;44.726;37.764;2023-01-04T01:06:44;8.02;;;4.97;;
75963;SDS011;65820;44.726;37.764;2023-01-04T01:07:51;8.13;;;5.25;;
75963;SDS011;65820;44.726;37.764;2023-01-04T01:08:58;7.45;;;4.60;;
75963;SDS011;65820;44.726;37.764;2023-01-04T01:10:05;7.32;;;4.53;;
75963;SDS011;65820;44.726;37.764;2023-01-04T01:11:14;8.30;;;5.32;;
75963;SDS011;65820;44.726;37.764;2023-01-04T01:12:20;8.48;;;5.10;;
75963;SDS011;65820;44.726;37.764;2023-01-04T01:13:27;8.82;;;5.25;;
75963;SDS011;65820;44.726;37.764;2023-01-04T01:14:33;7.40;;;4.90;;
75963;SDS011;65820;44.726;37.764;2023-01-04T01:15:40;7.68;;;4.63;;
75963;SDS011;65820;44.726;37.764;2023-01-04T01:16:47;7.90;;;5.10;;
75963;SDS011;65820;44.726;37.764;2023-01-04T01:17:54;8.10;;;4.95;;
75963;SDS011;65820;44.726;37.764;2023-01-04T01:19:00;7.75;;;4.90;;
75963;SDS011;65820;44.726;37.764;2023-01-04T01:20:08;8.43;;;5.43;;
75963;SDS011;65820;44.726;37.764;2023-01-04T01:21:16;7.88;;;5.20;;
75963;SDS011;65820;44.726;37.764;2023-01-04T01:22:25;8.05;;;5.15;;
75963;SDS011;65820;44.726;37.764;2023-01-04T01:23:31;7.88;;;4.72;;
75963;SDS011;65820;44.726;37.764;2023-01-04T01:24:38;8.80;;;4.88;;
75963;SDS011;65820;44.726;37.764;2023-01-04T01:25:45;7.78;;;4.72;;
75963;SDS011;65820;44.726;37.764;2023-01-04T01:26:51;7.97;;;4.75;;
75963;SDS011;65820;44.726;37.764;2023-01-04T01:27:58;8.73;;;5.38;;
75963;SDS011;65820;44.726;37.764;2023-01-04T01:29:05;7.13;;;4.47;;
75963;SDS011;65820;44.726;37.764;2023-01-04T01:30:11;9.10;;;4.90;;
75963;SDS011;65820;44.726;37.764;2023-01-04T01:31:22;8.95;;;5.60;;
75963;SDS011;65820;44.726;37.764;2023-01-04T01:32:30;7.80;;;4.97;;
75963;SDS011;65820;44.726;37.764;2023-01-04T01:33:37;7.72;;;4.88;;
75963;SDS011;65820;44.726;37.764;2023-01-04T01:34:45;8.20;;;5.18;;
75963;SDS011;65820;44.726;37.764;2023-01-04T01:35:51;7.20;;;5.00;;
75963;SDS011;65820;44.726;37.764;2023-01-04T01:36:58;8.07;;;4.85;;
75963;SDS011;65820;44.726;37.764;2023-01-04T01:38:05;8.32;;;5.45;;
75963;SDS011;65820;44.726;37.764;2023-01-04T01:39:11;7.88;;;4.97;;
75963;SDS011;65820;44.726;37.764;2023-01-04T01:40:18;7.93;;;4.60;;
75963;SDS011;65820;44.726;37.764;2023-01-04T01:41:26;7.85;;;4.95;;
75963;SDS011;65820;44.726;37.764;2023-01-04T01:42:35;7.93;;;5.35;;
75963;SDS011;65820;44.726;37.764;2023-01-04T01:45:06;8.25;;;4.50;;
75963;SDS011;65820;44.726;37.764;2023-01-04T01:46:33;8.85;;;5.00;;
75963;SDS011;65820;44.726;37.764;2023-01-04T01:47:48;8.55;;;5.40;;
75963;SDS011;65820;44.726;37.764;2023-01-04T01:48:59;8.60;;;4.82;;
75963;SDS011;65820;44.726;37.764;2023-01-04T01:50:16;8.02;;;5.15;;
75963;SDS011;65820;44.726;37.764;2023-01-04T01:51:29;8.43;;;5.18;;
75963;SDS011;65820;44.726;37.764;2023-01-04T01:52:38;8.20;;;5.05;;
75963;SDS011;65820;44.726;37.764;2023-01-04T01:53:47;7.72;;;4.75;;
75963;SDS011;65820;44.726;37.764;2023-01-04T01:54:58;7.72;;;5.10;;
75963;SDS011;65820;44.726;37.764;2023-01-04T01:56:09;8.02;;;5.00;;
75963;SDS011;65820;44.726;37.764;2023-01-04T01:57:17;7.35;;;4.68;;
75963;SDS011;65820;44.726;37.764;2023-01-04T01:58:30;7.50;;;4.82;;
75963;SDS011;65820;44.726;37.764;2023-01-04T01:59:39;8.02;;;5.13;;
75963;SDS011;65820;44.726;37.764;2023-01-04T02:00:48;8.68;;;5.22;;
75963;SDS011;65820;44.726;37.764;2023-01-04T02:01:55;8.38;;;5.00;;
75963;SDS011;65820;44.726;37.764;2023-01-04T02:04:27;9.50;;;5.25;;
75963;SDS011;65820;44.726;37.764;2023-01-04T02:05:34;8.07;;;4.68;;
75963;SDS011;65820;44.726;37.764;2023-01-04T02:06:42;8.48;;;5.32;;
75963;SDS011;65820;44.726;37.764;2023-01-04T02:07:52;7.85;;;5.38;;
75963;SDS011;65820;44.726;37.764;2023-01-04T02:09:00;7.53;;;4.60;;
75963;SDS011;65820;44.726;37.764;2023-01-04T02:10:07;7.90;;;4.88;;
75963;SDS011;65820;44.726;37.764;2023-01-04T02:11:14;8.88;;;5.28;;
75963;SDS011;65820;44.726;37.764;2023-01-04T02:12:21;7.93;;;5.07;;
75963;SDS011;65820;44.726;37.764;2023-01-04T02:13:28;8.07;;;4.90;;
75963;SDS011;65820;44.726;37.764;2023-01-04T02:14:55;7.68;;;4.75;;
75963;SDS011;65820;44.726;37.764;2023-01-04T02:16:05;7.55;;;5.20;;
75963;SDS011;65820;44.726;37.764;2023-01-04T02:18:46;8.30;;;5.20;;
75963;SDS011;65820;44.726;37.764;2023-01-04T02:23:08;7.55;;;4.68;;
75963;SDS011;65820;44.726;37.764;2023-01-04T02:27:17;8.00;;;4.70;;
75963;SDS011;65820;44.726;37.764;2023-01-04T02:30:36;8.70;;;5.10;;
75963;SDS011;65820;44.726;37.764;2023-01-04T02:35:10;8.75;;;4.68;;
75963;SDS011;65820;44.726;37.764;2023-01-04T02:38:05;9.25;;;5.00;;
75963;SDS011;65820;44.726;37.764;2023-01-04T02:41:14;7.68;;;4.63;;
75963;SDS011;65820;44.726;37.764;2023-01-04T02:42:41;8.00;;;5.03;;
75963;SDS011;65820;44.726;37.764;2023-01-04T02:44:16;8.60;;;4.82;;
75963;SDS011;65820;44.726;37.764;2023-01-04T02:45:49;8.27;;;5.00;;
75963;SDS011;65820;44.726;37.764;2023-01-04T02:47:03;7.40;;;4.55;;
75963;SDS011;65820;44.726;37.764;2023-01-04T02:48:13;8.13;;;5.10;;
75963;SDS011;65820;44.726;37.764;2023-01-04T02:49:40;8.38;;;5.45;;
75963;SDS011;65820;44.726;37.764;2023-01-04T02:51:21;7.45;;;4.75;;
75963;SDS011;65820;44.726;37.764;2023-01-04T02:52:32;8.02;;;4.93;;
75963;SDS011;65820;44.726;37.764;2023-01-04T02:53:39;7.78;;;4.95;;
75963;SDS011;65820;44.726;37.764;2023-01-04T02:54:47;8.18;;;4.93;;
75963;SDS011;65820;44.726;37.764;2023-01-04T02:55:59;7.95;;;5.47;;
75963;SDS011;65820;44.726;37.764;2023-01-04T02:57:57;8.27;;;5.30;;
75963;SDS011;65820;44.726;37.764;2023-01-04T03:04:00;8.13;;;4.60;;
75963;SDS011;65820;44.726;37.764;2023-01-04T03:07:31;7.88;;;4.88;;
75963;SDS011;65820;44.726;37.764;2023-01-04T03:09:57;7.93;;;4.95;;
75963;SDS011;65820;44.726;37.764;2023-01-04T03:11:40;7.45;;;4.78;;
75963;SDS011;65820;44.726;37.764;2023-01-04T03:13:17;9.20;;;5.00;;
75963;SDS011;65820;44.726;37.764;2023-01-04T03:14:34;7.22;;;4.60;;
75963;SDS011;65820;44.726;37.764;2023-01-04T03:16:10;7.60;;;4.75;;
75963;SDS011;65820;44.726;37.764;2023-01-04T03:17:21;8.13;;;4.95;;
75963;SDS011;65820;44.726;37.764;2023-01-04T03:18:30;8.45;;;4.47;;
75963;SDS011;65820;44.726;37.764;2023-01-04T03:19:41;8.77;;;4.78;;
75963;SDS011;65820;44.726;37.764;2023-01-04T03:21:00;7.55;;;4.57;;
75963;SDS011;65820;44.726;37.764;2023-01-04T03:22:09;8.13;;;4.75;;
75963;SDS011;65820;44.726;37.764;2023-01-04T03:23:39;8.02;;;5.03;;
75963;SDS011;65820;44.726;37.764;2023-01-04T03:25:06;7.80;;;4.45;;
75963;SDS011;65820;44.726;37.764;2023-01-04T03:26:33;8.50;;;4.93;;
75963;SDS011;65820;44.726;37.764;2023-01-04T03:28:04;7.50;;;4.47;;
75963;SDS011;65820;44.726;37.764;2023-01-04T03:29:38;8.25;;;4.78;;
75963;SDS011;65820;44.726;37.764;2023-01-04T03:31:16;6.75;;;4.20;;
75963;SDS011;65820;44.726;37.764;2023-01-04T03:32:52;8.32;;;4.20;;
75963;SDS011;65820;44.726;37.764;2023-01-04T03:34:21;7.20;;;4.47;;
75963;SDS011;65820;44.726;37.764;2023-01-04T03:40:28;8.10;;;4.60;;
75963;SDS011;65820;44.726;37.764;2023-01-04T03:42:04;8.05;;;4.70;;
75963;SDS011;65820;44.726;37.764;2023-01-04T03:44:27;7.75;;;4.78;;
75963;SDS011;65820;44.726;37.764;2023-01-04T03:46:04;8.80;;;4.93;;
75963;SDS011;65820;44.726;37.764;2023-01-04T03:47:49;7.38;;;4.10;;
75963;SDS011;65820;44.726;37.764;2023-01-04T03:50:40;7.60;;;4.68;;
75963;SDS011;65820;44.726;37.764;2023-01-04T03:51:52;7.72;;;4.60;;
75963;SDS011;65820;44.726;37.764;2023-01-04T03:53:03;8.10;;;4.55;;
75963;SDS011;65820;44.726;37.764;2023-01-04T03:54:18;6.43;;;4.05;;
75963;SDS011;65820;44.726;37.764;2023-01-04T03:55:35;8.77;;;4.50;;
75963;SDS011;65820;44.726;37.764;2023-01-04T03:56:44;8.35;;;4.82;;
75963;SDS011;65820;44.726;37.764;2023-01-04T03:57:52;7.13;;;4.10;;
75963;SDS011;65820;44.726;37.764;2023-01-04T03:58:59;7.00;;;4.40;;
75963;SDS011;65820;44.726;37.764;2023-01-04T04:00:10;8.35;;;4.60;;
75963;SDS011;65820;44.726;37.764;2023-01-04T04:01:19;7.28;;;4.25;;
75963;SDS011;65820;44.726;37.764;2023-01-04T04:02:28;7.05;;;4.03;;
75963;SDS011;65820;44.726;37.764;2023-01-04T04:03:36;6.65;;;4.30;;
75963;SDS011;65820;44.726;37.764;2023-01-04T04:05:01;7.93;;;4.32;;
75963;SDS011;65820;44.726;37.764;2023-01-04T04:06:27;6.78;;;4.40;;
75963;SDS011;65820;44.726;37.764;2023-01-04T04:07:52;8.52;;;4.70;;
75963;SDS011;65820;44.726;37.764;2023-01-04T04:09:17;7.40;;;4.50;;
75963;SDS011;65820;44.726;37.764;2023-01-04T04:10:24;7.97;;;4.32;;
75963;SDS011;65820;44.726;37.764;2023-01-04T04:11:31;7.43;;;4.00;;
75963;SDS011;65820;44.726;37.764;2023-01-04T04:12:37;7.57;;;4.30;;
75963;SDS011;65820;44.726;37.764;2023-01-04T04:13:45;6.53;;;3.92;;
75963;SDS011;65820;44.726;37.764;2023-01-04T04:14:53;6.90;;;4.18;;
75963;SDS011;65820;44.726;37.764;2023-01-04T04:15:59;7.32;;;4.53;;
75963;SDS011;65820;44.726;37.764;2023-01-04T04:17:06;8.63;;;4.50;;
75963;SDS011;65820;44.726;37.764;2023-01-04T04:18:12;8.27;;;4.53;;
75963;SDS011;65820;44.726;37.764;2023-01-04T04:19:19;7.40;;;4.10;;
75963;SDS011;65820;44.726;37.764;2023-01-04T04:20:27;7.60;;;4.70;;
75963;SDS011;65820;44.726;37.764;2023-01-04T04:21:33;6.55;;;3.83;;
75963;SDS011;65820;44.726;37.764;2023-01-04T04:22:40;8.90;;;4.30;;
75963;SDS011;65820;44.726;37.764;2023-01-04T04:23:46;8.73;;;4.90;;
75963;SDS011;65820;44.726;37.764;2023-01-04T04:24:53;6.18;;;3.75;;
75963;SDS011;65820;44.726;37.764;2023-01-04T04:26:00;7.30;;;4.40;;
75963;SDS011;65820;44.726;37.764;2023-01-04T04:27:06;7.70;;;4.28;;
75963;SDS011;65820;44.726;37.764;2023-01-04T04:28:13;7.82;;;4.25;;
75963;SDS011;65820;44.726;37.764;2023-01-04T04:29:20;7.10;;;4.30;;
75963;SDS011;65820;44.726;37.764;2023-01-04T04:30:27;8.05;;;4.25;;
75963;SDS011;65820;44.726;37.764;2023-01-04T04:31:34;7.55;;;4.55;;
75963;SDS011;65820;44.726;37.764;2023-01-04T04:32:40;7.28;;;4.40;;
75963;SDS011;65820;44.726;37.764;2023-01-04T04:33:47;7.40;;;4.35;;
75963;SDS011;65820;44.726;37.764;2023-01-04T04:34:54;7.22;;;4.50;;
75963;SDS011;65820;44.726;37.764;2023-01-04T04:36:00;6.85;;;4.03;;
75963;SDS011;65820;44.726;37.764;2023-01-04T04:37:07;8.15;;;4.20;;
75963;SDS011;65820;44.726;37.764;2023-01-04T04:38:14;7.75;;;4.30;;
75963;SDS011;65820;44.726;37.764;2023-01-04T04:39:20;7.53;;;4.30;;
75963;SDS011;65820;44.726;37.764;2023-01-04T04:40:27;7.07;;;3.95;;
75963;SDS011;65820;44.726;37.764;2023-01-04T04:41:52;6.53;;;4.05;;
75963;SDS011;65820;44.726;37.764;2023-01-04T04:42:58;7.18;;;4.43;;
75963;SDS011;65820;44.726;37.764;2023-01-04T04:44:09;7.40;;;4.60;;
75963;SDS011;65820;44.726;37.764;2023-01-04T04:45:20;7.45;;;4.18;;
75963;SDS011;65820;44.726;37.764;2023-01-04T04:46:26;6.75;;;4.35;;
75963;SDS011;65820;44.726;37.764;2023-01-04T04:47:33;8.68;;;4.20;;
75963;SDS011;65820;44.726;37.764;2023-01-04T04:48:40;7.53;;;4.22;;
75963;SDS011;65820;44.726;37.764;2023-01-04T04:49:46;6.93;;;4.05;;
75963;SDS011;65820;44.726;37.764;2023-01-04T04:50:54;6.90;;;4.18;;
75963;SDS011;65820;44.726;37.764;2023-01-04T04:52:01;8.70;;;4.20;;
75963;SDS011;65820;44.726;37.764;2023-01-04T04:53:08;7.18;;;4.00;;
75963;SDS011;65820;44.726;37.764;2023-01-04T04:54:15;6.95;;;4.00;;
75963;SDS011;65820;44.726;37.764;2023-01-04T04:55:25;7.03;;;4.10;;
75963;SDS011;65820;44.726;37.764;2023-01-04T04:56:31;8.43;;;4.80;;
75963;SDS011;65820;44.726;37.764;2023-01-04T04:57:38;8.23;;;4.28;;
75963;SDS011;65820;44.726;37.764;2023-01-04T04:58:45;6.70;;;4.22;;
75963;SDS011;65820;44.726;37.764;2023-01-04T04:59:52;7.57;;;4.32;;
75963;SDS011;65820;44.726;37.764;2023-01-04T05:00:58;7.15;;;4.47;;
75963;SDS011;65820;44.726;37.764;2023-01-04T05:02:05;7.60;;;4.70;;
75963;SDS011;65820;44.726;37.764;2023-01-04T05:03:12;6.75;;;4.15;;
75963;SDS011;65820;44.726;37.764;2023-01-04T05:04:18;9.45;;;4.78;;
75963;SDS011;65820;44.726;37.764;2023-01-04T05:05:26;8.02;;;4.70;;
75963;SDS011;65820;44.726;37.764;2023-01-04T05:06:33;7.97;;;4.82;;
75963;SDS011;65820;44.726;37.764;2023-01-04T05:07:39;7.95;;;4.80;;
75963;SDS011;65820;44.726;37.764;2023-01-04T05:08:46;7.28;;;4.50;;
75963;SDS011;65820;44.726;37.764;2023-01-04T05:09:53;6.78;;;4.20;;
75963;SDS011;65820;44.726;37.764;2023-01-04T05:11:01;7.15;;;4.18;;
75963;SDS011;65820;44.726;37.764;2023-01-04T05:12:11;7.38;;;4.57;;
75963;SDS011;65820;44.726;37.764;2023-01-04T05:13:36;7.78;;;4.57;;
75963;SDS011;65820;44.726;37.764;2023-01-04T05:14:43;7.68;;;4.60;;
75963;SDS011;65820;44.726;37.764;2023-01-04T05:15:50;6.88;;;4.22;;
75963;SDS011;65820;44.726;37.764;2023-01-04T05:16:58;8.35;;;4.28;;
75963;SDS011;65820;44.726;37.764;2023-01-04T05:18:05;6.93;;;4.38;;
75963;SDS011;65820;44.726;37.764;2023-01-04T05:19:12;7.15;;;4.18;;
75963;SDS011;65820;44.726;37.764;2023-01-04T05:20:19;8.35;;;4.35;;
75963;SDS011;65820;44.726;37.764;2023-01-04T05:21:26;7.82;;;4.53;;
75963;SDS011;65820;44.726;37.764;2023-01-04T05:22:33;9.15;;;4.85;;
75963;SDS011;65820;44.726;37.764;2023-01-04T05:23:39;7.53;;;4.28;;
75963;SDS011;65820;44.726;37.764;2023-01-04T05:24:46;7.55;;;4.68;;
75963;SDS011;65820;44.726;37.764;2023-01-04T05:25:54;7.20;;;4.28;;
75963;SDS011;65820;44.726;37.764;2023-01-04T05:27:03;8.43;;;4.97;;
75963;SDS011;65820;44.726;37.764;2023-01-04T05:28:10;8.15;;;4.82;;
75963;SDS011;65820;44.726;37.764;2023-01-04T05:29:17;8.35;;;5.05;;
75963;SDS011;65820;44.726;37.764;2023-01-04T05:30:47;8.60;;;4.97;;
75963;SDS011;65820;44.726;37.764;2023-01-04T05:31:58;7.95;;;4.95;;
75963;SDS011;65820;44.726;37.764;2023-01-04T05:33:05;8.13;;;5.20;;
75963;SDS011;65820;44.726;37.764;2023-01-04T05:34:12;8.15;;;4.68;;
75963;SDS011;65820;44.726;37.764;2023-01-04T05:35:18;7.90;;;4.97;;
75963;SDS011;65820;44.726;37.764;2023-01-04T05:36:26;8.80;;;5.30;;
75963;SDS011;65820;44.726;37.764;2023-01-04T05:37:33;8.25;;;5.03;;
75963;SDS011;65820;44.726;37.764;2023-01-04T05:38:40;8.10;;;4.90;;
75963;SDS011;65820;44.726;37.764;2023-01-04T05:39:46;7.43;;;4.63;;
75963;SDS011;65820;44.726;37.764;2023-01-04T05:40:53;7.80;;;4.78;;
75963;SDS011;65820;44.726;37.764;2023-01-04T05:42:00;7.95;;;4.93;;
75963;SDS011;65820;44.726;37.764;2023-01-04T05:43:25;7.65;;;4.70;;
75963;SDS011;65820;44.726;37.764;2023-01-04T05:44:31;7.97;;;5.03;;
75963;SDS011;65820;44.726;37.764;2023-01-04T05:45:39;7.70;;;4.75;;
75963;SDS011;65820;44.726;37.764;2023-01-04T05:46:46;8.10;;;4.88;;
75963;SDS011;65820;44.726;37.764;2023-01-04T05:47:52;7.80;;;5.25;;
75963;SDS011;65820;44.726;37.764;2023-01-04T05:49:00;6.85;;;4.50;;
75963;SDS011;65820;44.726;37.764;2023-01-04T05:50:06;8.30;;;4.78;;
75963;SDS011;65820;44.726;37.764;2023-01-04T05:51:14;8.15;;;4.78;;
75963;SDS011;65820;44.726;37.764;2023-01-04T05:52:21;7.68;;;4.30;;
75963;SDS011;65820;44.726;37.764;2023-01-04T05:53:28;8.05;;;4.53;;
75963;SDS011;65820;44.726;37.764;2023-01-04T05:54:34;7.43;;;4.60;;
75963;SDS011;65820;44.726;37.764;2023-01-04T05:55:41;7.70;;;4.68;;
75963;SDS011;65820;44.726;37.764;2023-01-04T05:56:47;7.63;;;4.22;;
75963;SDS011;65820;44.726;37.764;2023-01-04T05:57:54;6.97;;;4.25;;
75963;SDS011;65820;44.726;37.764;2023-01-04T05:59:00;6.75;;;4.18;;
75963;SDS011;65820;44.726;37.764;2023-01-04T06:00:08;7.68;;;4.32;;
75963;SDS011;65820;44.726;37.764;2023-01-04T06:01:19;8.55;;;4.20;;
75963;SDS011;65820;44.726;37.764;2023-01-04T06:02:27;8.43;;;4.35;;
75963;SDS011;65820;44.726;37.764;2023-01-04T06:03:34;7.30;;;4.07;;
75963;SDS011;65820;44.726;37.764;2023-01-04T06:04:41;9.38;;;4.47;;
75963;SDS011;65820;44.726;37.764;2023-01-04T06:05:51;7.10;;;4.03;;
75963;SDS011;65820;44.726;37.764;2023-01-04T06:06:58;6.90;;;3.97;;
75963;SDS011;65820;44.726;37.764;2023-01-04T06:08:05;7.80;;;3.90;;
75963;SDS011;65820;44.726;37.764;2023-01-04T06:09:12;8.10;;;4.68;;
75963;SDS011;65820;44.726;37.764;2023-01-04T06:10:19;8.63;;;4.18;;
75963;SDS011;65820;44.726;37.764;2023-01-04T06:11:26;7.43;;;3.95;;
75963;SDS011;65820;44.726;37.764;2023-01-04T06:12:32;7.65;;;4.20;;
75963;SDS011;65820;44.726;37.764;2023-01-04T06:13:39;7.57;;;3.75;;
75963;SDS011;65820;44.726;37.764;2023-01-04T06:14:46;6.82;;;3.85;;
75963;SDS011;65820;44.726;37.764;2023-01-04T06:15:53;7.68;;;4.00;;
75963;SDS011;65820;44.726;37.764;2023-01-04T06:16:59;7.85;;;4.20;;
75963;SDS011;65820;44.726;37.764;2023-01-04T06:18:06;7.40;;;4.00;;
75963;SDS011;65820;44.726;37.764;2023-01-04T06:19:13;6.70;;;3.92;;
75963;SDS011;65820;44.726;37.764;2023-01-04T06:20:19;7.32;;;3.90;;
75963;SDS011;65820;44.726;37.764;2023-01-04T06:21:26;7.15;;;3.92;;
75963;SDS011;65820;44.726;37.764;2023-01-04T06:22:33;6.35;;;3.58;;
75963;SDS011;65820;44.726;37.764;2023-01-04T06:23:39;7.43;;;3.80;;
75963;SDS011;65820;44.726;37.764;2023-01-04T06:24:46;7.45;;;4.10;;
75963;SDS011;65820;44.726;37.764;2023-01-04T06:25:53;7.60;;;4.40;;
75963;SDS011;65820;44.726;37.764;2023-01-04T06:27:00;7.45;;;3.88;;
75963;SDS011;65820;44.726;37.764;2023-01-04T06:28:07;6.90;;;4.00;;
75963;SDS011;65820;44.726;37.764;2023-01-04T06:29:13;6.18;;;3.67;;
75963;SDS011;65820;44.726;37.764;2023-01-04T06:30:20;6.95;;;3.55;;
75963;SDS011;65820;44.726;37.764;2023-01-04T06:31:26;8.30;;;4.80;;
75963;SDS011;65820;44.726;37.764;2023-01-04T06:32:33;7.32;;;3.95;;
75963;SDS011;65820;44.726;37.764;2023-01-04T06:33:40;7.22;;;3.72;;
75963;SDS011;65820;44.726;37.764;2023-01-04T06:34:47;7.63;;;3.83;;
75963;SDS011;65820;44.726;37.764;2023-01-04T06:35:54;6.82;;;3.70;;
75963;SDS011;65820;44.726;37.764;2023-01-04T06:37:01;7.70;;;4.03;;
75963;SDS011;65820;44.726;37.764;2023-01-04T06:38:08;7.88;;;3.97;;
75963;SDS011;65820;44.726;37.764;2023-01-04T06:39:14;9.07;;;4.20;;
75963;SDS011;65820;44.726;37.764;2023-01-04T06:40:21;6.50;;;3.70;;
75963;SDS011;65820;44.726;37.764;2023-01-04T06:41:28;6.57;;;3.35;;
75963;SDS011;65820;44.726;37.764;2023-01-04T06:42:34;6.55;;;3.45;;
75963;SDS011;65820;44.726;37.764;2023-01-04T06:43:50;6.57;;;3.28;;
75963;SDS011;65820;44.726;37.764;2023-01-04T06:44:57;7.15;;;3.40;;
75963;SDS011;65820;44.726;37.764;2023-01-04T06:46:04;7.20;;;3.83;;
75963;SDS011;65820;44.726;37.764;2023-01-04T06:47:10;6.05;;;3.60;;
75963;SDS011;65820;44.726;37.764;2023-01-04T06:48:18;5.90;;;3.50;;
75963;SDS011;65820;44.726;37.764;2023-01-04T06:49:25;6.65;;;3.67;;
75963;SDS011;65820;44.726;37.764;2023-01-04T06:50:31;6.97;;;3.30;;
75963;SDS011;65820;44.726;37.764;2023-01-04T06:51:38;5.63;;;3.20;;
75963;SDS011;65820;44.726;37.764;2023-01-04T06:52:45;6.10;;;3.55;;
75963;SDS011;65820;44.726;37.764;2023-01-04T06:53:51;6.10;;;3.40;;
75963;SDS011;65820;44.726;37.764;2023-01-04T06:54:58;6.40;;;3.58;;
75963;SDS011;65820;44.726;37.764;2023-01-04T06:56:05;6.53;;;3.75;;
75963;SDS011;65820;44.726;37.764;2023-01-04T06:57:14;6.60;;;3.85;;
75963;SDS011;65820;44.726;37.764;2023-01-04T06:58:20;6.18;;;3.05;;
75963;SDS011;65820;44.726;37.764;2023-01-04T06:59:27;6.22;;;3.10;;
75963;SDS011;65820;44.726;37.764;2023-01-04T07:00:33;5.55;;;3.03;;
75963;SDS011;65820;44.726;37.764;2023-01-04T07:01:40;5.53;;;3.00;;
75963;SDS011;65820;44.726;37.764;2023-01-04T07:02:47;6.28;;;3.38;;
75963;SDS011;65820;44.726;37.764;2023-01-04T07:03:53;5.28;;;3.22;;
75963;SDS011;65820;44.726;37.764;2023-01-04T07:05:01;6.10;;;3.40;;
75963;SDS011;65820;44.726;37.764;2023-01-04T07:06:08;8.00;;;3.53;;
75963;SDS011;65820;44.726;37.764;2023-01-04T07:07:15;5.70;;;3.15;;
75963;SDS011;65820;44.726;37.764;2023-01-04T07:08:22;6.43;;;3.45;;
75963;SDS011;65820;44.726;37.764;2023-01-04T07:09:29;6.50;;;3.60;;
75963;SDS011;65820;44.726;37.764;2023-01-04T07:10:35;6.68;;;3.20;;
75963;SDS011;65820;44.726;37.764;2023-01-04T07:11:42;6.40;;;3.15;;
75963;SDS011;65820;44.726;37.764;2023-01-04T07:12:49;5.75;;;3.33;;
75963;SDS011;65820;44.726;37.764;2023-01-04T07:13:56;5.70;;;3.10;;
75963;SDS011;65820;44.726;37.764;2023-01-04T07:15:02;6.18;;;3.28;;
75963;SDS011;65820;44.726;37.764;2023-01-04T07:16:10;8.25;;;3.40;;
75963;SDS011;65820;44.726;37.764;2023-01-04T07:17:16;6.28;;;3.33;;
75963;SDS011;65820;44.726;37.764;2023-01-04T07:18:23;5.50;;;2.95;;
75963;SDS011;65820;44.726;37.764;2023-01-04T07:19:30;6.88;;;3.53;;
75963;SDS011;65820;44.726;37.764;2023-01-04T07:20:37;6.22;;;3.30;;
75963;SDS011;65820;44.726;37.764;2023-01-04T07:21:44;5.90;;;3.25;;
75963;SDS011;65820;44.726;37.764;2023-01-04T07:22:51;6.38;;;3.25;;
75963;SDS011;65820;44.726;37.764;2023-01-04T07:23:58;6.20;;;2.97;;
75963;SDS011;65820;44.726;37.764;2023-01-04T07:25:04;5.13;;;2.95;;
75963;SDS011;65820;44.726;37.764;2023-01-04T07:26:11;7.05;;;3.05;;
75963;SDS011;65820;44.726;37.764;2023-01-04T07:27:18;5.78;;;3.05;;
75963;SDS011;65820;44.726;37.764;2023-01-04T07:28:24;5.60;;;2.78;;
75963;SDS011;65820;44.726;37.764;2023-01-04T07:29:49;6.07;;;3.13;;
75963;SDS011;65820;44.726;37.764;2023-01-04T07:30:56;5.22;;;3.03;;